Time;durP1;ratioP1;P1;durP2;ratioP2;P2;SDS_P1;SDS_P2;PMS_P1;PMS_P2;Temp;Humidity;BMP_temperature;BMP_pressure;BME280_temperature;BME280_humidity;BME280_pressure;Samples;Min_cycle;Max_cycle;Signal;HPM_P1;HPM_P2
2024/01/28 00:01:34;;;;;;;22.42;9.68;;;;;;;-0.16;81.41;100128.50;4948929;29;20487;-71
2024/01/28 00:04:00;;;;;;;17.92;9.13;;;;;;;-0.18;81.86;100122.50;4955278;28;20031;-70
2024/01/28 00:06:25;;;;;;;17.40;9.45;;;;;;;-0.25;81.14;100105.44;4974369;28;20081;-69
2024/01/28 00:08:50;;;;;;;17.63;9.48;;;;;;;-0.34;81.53;100082.41;4970738;28;20114;-69
2024/01/28 00:11:16;;;;;;;20.63;9.18;;;;;;;-0.27;81.74;100085.38;4961169;28;20043;-69
2024/01/28 00:13:41;;;;;;;18.92;10.00;;;;;;;-0.20;81.46;100105.06;4959301;28;20023;-70
2024/01/28 00:16:13;;;;;;;18.67;10.55;;;;;;;-0.13;82.19;100107.06;4960673;28;20083;-70
2024/01/28 00:18:38;;;;;;;21.30;11.07;;;;;;;-0.16;82.07;100102.03;4959460;28;20043;-68
2024/01/28 00:21:04;;;;;;;23.38;11.13;;;;;;;-0.20;82.56;100092.66;4953781;28;20468;-69
2024/01/28 00:23:30;;;;;;;21.48;11.48;;;;;;;-0.11;82.68;100096.34;4962252;28;20038;-68
2024/01/28 00:25:55;;;;;;;24.00;11.70;;;;;;;-0.11;82.94;100105.13;4954867;28;20106;-70
2024/01/28 00:28:20;;;;;;;24.45;11.13;;;;;;;-0.18;83.08;100080.13;4952148;29;20078;-68
2024/01/28 00:30:46;;;;;;;23.13;11.88;;;;;;;-0.06;82.92;100096.78;4956082;28;20103;-69
2024/01/28 00:33:11;;;;;;;26.92;11.73;;;;;;;-0.07;82.82;100095.13;4959352;28;20043;-69
2024/01/28 00:35:37;;;;;;;26.85;13.10;;;;;;;-0.15;83.04;100079.88;4952636;28;20065;-69
2024/01/28 00:38:03;;;;;;;23.23;12.30;;;;;;;-0.10;83.12;100090.94;4966359;28;20679;-69
2024/01/28 00:40:28;;;;;;;21.30;11.50;;;;;;;-0.15;84.04;100082.53;4956965;28;20027;-69
2024/01/28 00:42:54;;;;;;;21.80;11.65;;;;;;;-0.07;84.26;100095.94;4978886;28;20491;-69
2024/01/28 00:45:19;;;;;;;23.38;11.27;;;;;;;-0.13;83.86;100075.28;4966314;28;20501;-70
2024/01/28 00:47:45;;;;;;;19.88;12.05;;;;;;;-0.04;84.09;100093.03;4957337;28;20549;-69
2024/01/28 00:50:10;;;;;;;23.45;11.70;;;;;;;-0.05;83.89;100083.41;4959073;28;20376;-69
2024/01/28 00:52:35;;;;;;;20.98;11.70;;;;;;;-0.18;83.86;100066.91;4969883;28;20093;-70
2024/01/28 00:55:01;;;;;;;18.88;11.15;;;;;;;-0.04;84.32;100085.09;4952116;29;20035;-69
2024/01/28 00:57:26;;;;;;;23.95;12.07;;;;;;;-0.08;83.67;100083.69;4965998;28;20113;-69
2024/01/28 00:59:51;;;;;;;21.65;11.57;;;;;;;-0.09;83.57;100076.69;4947405;28;20472;-72
2024/01/28 01:02:17;;;;;;;22.60;11.30;;;;;;;-0.13;84.10;100070.00;4954331;28;20039;-70
2024/01/28 01:04:42;;;;;;;22.92;11.07;;;;;;;-0.13;83.98;100075.28;4954145;28;20023;-70
2024/01/28 01:07:08;;;;;;;20.85;10.73;;;;;;;-0.14;83.04;100073.59;4967572;28;20066;-70
2024/01/28 01:09:35;;;;;;;18.77;9.88;;;;;;;-0.34;83.22;100040.06;4963546;28;20063;-70
2024/01/28 01:12:02;;;;;;;21.67;10.88;;;;;;;-0.18;83.64;100066.91;4960684;28;20045;-71
2024/01/28 01:14:27;;;;;;;21.90;9.98;;;;;;;-0.25;83.23;100065.75;4961668;28;20030;-70
2024/01/28 01:16:53;;;;;;;24.75;11.70;;;;;;;-0.33;83.84;100057.63;4963002;28;20058;-69
2024/01/28 01:19:18;;;;;;;23.02;10.75;;;;;;;-0.36;83.25;100063.19;4973297;28;20114;-70
2024/01/28 01:21:44;;;;;;;24.40;9.23;;;;;;;-0.46;83.04;100070.19;4958436;28;20482;-70
2024/01/28 01:24:09;;;;;;;21.50;11.18;;;;;;;-0.43;83.15;100058.53;4962787;28;20483;-70
2024/01/28 01:26:34;;;;;;;21.05;11.02;;;;;;;-0.49;83.31;100057.22;4956094;28;20055;-70
2024/01/28 01:29:00;;;;;;;25.48;10.93;;;;;;;-0.56;83.42;100050.75;4961943;28;20466;-68
2024/01/28 01:31:25;;;;;;;22.95;12.30;;;;;;;-0.58;83.66;100052.69;4955925;28;20057;-68
2024/01/28 01:33:50;;;;;;;25.35;12.10;;;;;;;-0.63;82.96;100044.31;4955994;28;20035;-69
2024/01/28 01:36:16;;;;;;;27.17;13.23;;;;;;;-0.57;83.17;100061.47;4955977;28;20118;-69
2024/01/28 01:38:41;;;;;;;27.48;13.98;;;;;;;-0.57;82.53;100059.69;4956028;28;20031;-69
2024/01/28 01:41:07;;;;;;;26.00;10.52;;;;;;;-0.66;83.28;100062.25;4960686;28;20050;-69
2024/01/28 01:43:32;;;;;;;23.27;12.32;;;;;;;-0.64;83.70;100052.38;4957702;28;20023;-69
2024/01/28 01:45:58;;;;;;;24.38;12.90;;;;;;;-0.71;83.21;100042.31;4964741;28;20125;-69
2024/01/28 01:48:23;;;;;;;22.75;12.98;;;;;;;-0.68;83.34;100057.09;4955784;28;20020;-68
2024/01/28 01:50:49;;;;;;;25.92;14.63;;;;;;;-0.70;82.68;100048.44;4963359;28;20039;-69
2024/01/28 01:53:16;;;;;;;22.13;13.80;;;;;;;-0.74;82.83;100045.22;4965511;28;20027;-69
2024/01/28 01:55:42;;;;;;;24.67;14.15;;;;;;;-0.82;82.50;100044.19;4954544;29;20035;-70
2024/01/28 01:58:09;;;;;;;25.13;11.75;;;;;;;-0.91;83.36;100044.94;4968528;28;20054;-68
2024/01/28 02:00:34;;;;;;;22.98;13.13;;;;;;;-0.92;82.59;100032.69;4964550;28;20041;-69
2024/01/28 02:03:01;;;;;;;20.92;12.48;;;;;;;-0.74;82.82;100047.00;4962357;28;20023;-69
2024/01/28 02:05:27;;;;;;;25.77;11.13;;;;;;;-1.03;82.51;100027.44;4967805;28;20031;-70
2024/01/28 02:07:52;;;;;;;25.35;12.82;;;;;;;-0.88;83.19;100029.66;4954170;29;20526;-71
2024/01/28 02:10:19;;;;;;;23.33;10.13;;;;;;;-0.90;83.01;100041.31;4947670;28;20055;-70
2024/01/28 02:12:49;;;;;;;21.77;11.15;;;;;;;-0.82;82.96;100038.91;4936461;29;20023;-71
2024/01/28 02:15:15;;;;;;;29.90;12.45;;;;;;;-0.85;82.87;100039.13;4961327;28;20034;-72
2024/01/28 02:17:40;;;;;;;22.48;9.57;;;;;;;-0.99;83.25;100037.63;4959783;28;20403;-72
2024/01/28 02:20:06;;;;;;;27.88;12.20;;;;;;;-0.95;82.99;100031.13;4957348;28;20034;-71
2024/01/28 02:22:32;;;;;;;22.05;11.10;;;;;;;-0.89;82.56;100027.16;4977654;28;20023;-71
2024/01/28 02:24:57;;;;;;;19.65;11.18;;;;;;;-0.99;82.77;100015.63;4958353;28;20063;-73
2024/01/28 02:27:23;;;;;;;20.50;8.70;;;;;;;-1.12;82.67;100025.56;4949791;29;20027;-70
2024/01/28 02:29:48;;;;;;;24.77;11.27;;;;;;;-0.89;82.50;100043.00;4962876;28;20043;-72
2024/01/28 02:32:16;;;;;;;19.92;9.13;;;;;;;-1.09;82.33;100030.56;4960017;28;20030;-71
2024/01/28 02:34:42;;;;;;;16.08;9.73;;;;;;;-0.94;82.84;100029.31;4970081;28;20448;-71
2024/01/28 02:37:08;;;;;;;19.13;10.07;;;;;;;-0.89;82.35;100037.72;4953900;28;20070;-70
2024/01/28 02:39:33;;;;;;;20.38;10.18;;;;;;;-0.95;82.50;100027.63;4960447;28;20399;-70
2024/01/28 02:41:59;;;;;;;23.88;8.43;;;;;;;-1.08;82.81;100033.09;4956062;28;20031;-69
2024/01/28 02:44:24;;;;;;;20.33;11.65;;;;;;;-1.12;82.76;100004.41;4955349;29;20114;-69
2024/01/28 02:46:49;;;;;;;32.03;12.48;;;;;;;-1.02;82.66;100034.41;4954823;28;20535;-70
2024/01/28 02:49:16;;;;;;;17.55;9.30;;;;;;;-1.14;82.73;100028.31;4969712;28;20090;-68
2024/01/28 02:51:45;;;;;;;19.80;8.70;;;;;;;-1.10;82.54;100028.91;4954594;28;20034;-68
2024/01/28 02:54:11;;;;;;;18.35;10.43;;;;;;;-0.98;82.79;100031.38;4944900;29;20062;-68
2024/01/28 02:56:36;;;;;;;14.70;8.40;;;;;;;-1.21;82.79;100010.47;4950080;29;20035;-69
2024/01/28 02:59:03;;;;;;;27.08;12.18;;;;;;;-1.01;82.59;100028.16;4969442;28;20039;-70
2024/01/28 03:01:28;;;;;;;21.98;11.52;;;;;;;-0.98;83.22;100022.63;4952452;28;20031;-68
2024/01/28 03:03:54;;;;;;;23.90;11.98;;;;;;;-0.99;83.18;100028.88;4962770;28;20041;-68
2024/01/28 03:06:19;;;;;;;21.98;10.68;;;;;;;-1.03;82.77;100027.44;4963976;28;20395;-70
2024/01/28 03:08:45;;;;;;;19.08;10.65;;;;;;;-1.01;82.89;100028.16;4954147;28;20035;-70
2024/01/28 03:11:10;;;;;;;18.80;11.43;;;;;;;-1.12;82.83;100015.00;4962935;28;20490;-70
2024/01/28 03:13:35;;;;;;;22.92;9.05;;;;;;;-1.14;82.60;100032.75;4960253;28;20098;-69
2024/01/28 03:16:01;;;;;;;20.13;9.05;;;;;;;-1.16;83.01;100034.69;4969169;28;20040;-68
2024/01/28 03:18:26;;;;;;;21.23;8.05;;;;;;;-1.18;83.17;100036.63;4964017;28;20036;-69
2024/01/28 03:20:52;;;;;;;19.10;8.15;;;;;;;-1.19;83.34;100035.75;4954143;28;20523;-68
2024/01/28 03:23:19;;;;;;;19.67;10.05;;;;;;;-1.09;82.85;100038.50;4972048;28;20491;-68
2024/01/28 03:25:45;;;;;;;21.85;9.00;;;;;;;-1.19;83.63;100040.25;4967021;28;20382;-70
2024/01/28 03:28:10;;;;;;;19.35;9.20;;;;;;;-1.30;83.60;100032.31;4958730;28;20035;-69
2024/01/28 03:30:36;;;;;;;19.38;10.80;;;;;;;-1.04;82.85;100045.09;4955980;28;20114;-71
2024/01/28 03:33:01;;;;;;;15.75;7.95;;;;;;;-1.21;83.51;100047.47;4968385;28;20487;-70
2024/01/28 03:35:26;;;;;;;24.58;10.18;;;;;;;-1.16;83.18;100040.81;4963228;28;20118;-73
2024/01/28 03:37:52;;;;;;;20.40;7.97;;;;;;;-1.30;83.17;100042.88;4953660;29;20726;-72
2024/01/28 03:40:17;;;;;;;15.52;9.25;;;;;;;-1.20;83.37;100049.13;4968623;28;20030;-70
2024/01/28 03:42:43;;;;;;;20.38;10.15;;;;;;;-1.29;82.72;100026.09;4953434;28;20063;-67
2024/01/28 03:45:12;;;;;;;16.52;7.78;;;;;;;-1.43;82.85;100037.78;4962010;28;20102;-70
2024/01/28 03:47:37;;;;;;;18.08;9.40;;;;;;;-1.19;82.84;100045.53;4953600;28;20432;-70
2024/01/28 03:50:03;;;;;;;15.60;7.38;;;;;;;-1.44;82.46;100029.00;4959662;28;20038;-71
2024/01/28 03:52:28;;;;;;;22.10;10.18;;;;;;;-1.18;83.11;100047.19;4965689;28;20047;-71
2024/01/28 03:54:54;;;;;;;22.38;8.57;;;;;;;-1.38;83.14;100039.06;4953844;28;20042;-72
2024/01/28 03:57:19;;;;;;;18.40;8.70;;;;;;;-1.50;82.38;100021.59;4953351;29;20509;-71
2024/01/28 03:59:45;;;;;;;17.02;7.80;;;;;;;-1.43;82.86;100033.34;4953565;28;20027;-72
2024/01/28 04:02:10;;;;;;;19.30;9.00;;;;;;;-1.30;82.88;100032.31;4968174;28;20130;-72
2024/01/28 04:04:35;;;;;;;17.13;8.35;;;;;;;-1.43;82.61;100046.53;4967911;28;20023;-72
2024/01/28 04:07:01;;;;;;;24.33;9.60;;;;;;;-1.25;81.84;100040.72;4953354;28;20451;-72
2024/01/28 04:09:27;;;;;;;17.17;8.57;;;;;;;-1.33;82.13;100037.88;4955398;28;20042;-72
2024/01/28 04:11:52;;;;;;;18.27;8.45;;;;;;;-1.41;81.75;100039.34;4968028;28;20053;-72
2024/01/28 04:14:17;;;;;;;16.65;9.77;;;;;;;-1.44;81.83;100023.72;4953662;28;20083;-72
2024/01/28 04:16:43;;;;;;;18.02;9.65;;;;;;;-1.38;81.71;100041.72;4968106;28;20114;-72
2024/01/28 04:19:08;;;;;;;15.90;7.45;;;;;;;-1.59;81.12;100040.78;4968340;28;20495;-72
2024/01/28 04:21:34;;;;;;;15.90;9.90;;;;;;;-1.42;81.67;100045.56;4967702;28;20043;-68
2024/01/28 04:24:00;;;;;;;15.75;9.15;;;;;;;-1.41;81.48;100049.91;4953369;28;20038;-71
2024/01/28 04:26:27;;;;;;;20.05;8.23;;;;;;;-1.63;82.12;100047.28;4966847;28;20039;-70
2024/01/28 04:28:52;;;;;;;18.27;9.80;;;;;;;-1.44;81.34;100050.13;4953597;28;20051;-70
2024/01/28 04:31:19;;;;;;;15.30;7.20;;;;;;;-1.62;81.55;100054.25;4952034;29;20381;-69
2024/01/28 04:33:44;;;;;;;18.55;7.53;;;;;;;-1.64;82.09;100045.63;4952594;28;20102;-70
2024/01/28 04:36:10;;;;;;;17.02;9.90;;;;;;;-1.57;81.85;100033.59;4967859;28;20241;-70
2024/01/28 04:38:35;;;;;;;19.48;9.60;;;;;;;-1.74;81.64;100026.19;4949481;28;20028;-71
2024/01/28 04:41:01;;;;;;;17.70;9.75;;;;;;;-1.59;81.99;100032.84;4957267;28;20458;-71
2024/01/28 04:43:26;;;;;;;18.02;7.97;;;;;;;-1.86;81.41;99999.91;4965102;28;20398;-70
2024/01/28 04:45:52;;;;;;;22.38;10.82;;;;;;;-1.66;81.63;100026.41;4968531;28;20046;-69
2024/01/28 04:48:20;;;;;;;18.25;10.48;;;;;;;-1.61;81.72;100018.94;4964479;28;20391;-70
2024/01/28 04:50:46;;;;;;;20.63;10.43;;;;;;;-1.66;81.93;100025.56;4960562;28;20035;-72
2024/01/28 04:53:12;;;;;;;19.48;9.82;;;;;;;-1.72;81.64;100021.59;4963027;28;20027;-71
2024/01/28 04:55:37;;;;;;;13.60;7.28;;;;;;;-1.93;81.67;100015.38;4968466;28;20511;-72
2024/01/28 04:58:02;;;;;;;17.70;9.70;;;;;;;-1.83;81.87;100012.84;4957247;28;20035;-72
2024/01/28 05:00:28;;;;;;;18.80;10.38;;;;;;;-1.83;82.05;100012.84;4957377;28;20050;-72
2024/01/28 05:02:56;;;;;;;20.60;8.80;;;;;;;-1.88;82.07;100022.94;4956812;28;20027;-70
2024/01/28 05:05:22;;;;;;;18.50;8.70;;;;;;;-1.90;82.00;100022.22;4969245;28;20039;-70
2024/01/28 05:07:48;;;;;;;25.50;10.13;;;;;;;-1.96;81.97;100015.63;4956328;28;20046;-70
2024/01/28 05:10:13;;;;;;;24.45;8.95;;;;;;;-1.98;81.67;100014.91;4957214;28;20479;-70
2024/01/28 05:12:39;;;;;;;22.98;11.20;;;;;;;-1.65;82.35;100027.22;4957279;28;20027;-71
2024/01/28 05:15:06;;;;;;;20.30;9.15;;;;;;;-1.79;82.05;100036.25;4957118;29;20054;-70
2024/01/28 05:17:35;;;;;;;22.02;10.40;;;;;;;-1.65;81.96;100033.38;4955840;28;20047;-70
2024/01/28 05:20:00;;;;;;;20.65;8.18;;;;;;;-1.88;82.63;100010.59;4965653;28;20041;-70
2024/01/28 05:22:26;;;;;;;22.77;10.48;;;;;;;-1.66;82.40;100020.28;4956633;28;20023;-70
2024/01/28 05:24:51;;;;;;;18.35;11.65;;;;;;;-1.62;82.32;100017.28;4964825;28;20415;-70
2024/01/28 05:27:16;;;;;;;17.80;8.85;;;;;;;-1.71;82.89;100018.03;4967068;28;20030;-71
2024/01/28 05:29:42;;;;;;;21.42;11.38;;;;;;;-1.72;83.17;100003.13;4962098;29;20342;-71
2024/01/28 05:32:08;;;;;;;20.00;9.40;;;;;;;-1.72;83.03;100021.59;4957144;28;20023;-72
2024/01/28 05:34:33;;;;;;;24.75;10.23;;;;;;;-1.70;83.09;100013.56;4955894;28;20046;-72
2024/01/28 05:36:59;;;;;;;20.83;9.82;;;;;;;-1.78;83.65;99998.34;4954416;28;20431;-69
2024/01/28 05:39:24;;;;;;;23.20;10.00;;;;;;;-1.66;83.20;100013.22;4966561;28;20391;-71
2024/01/28 05:41:50;;;;;;;20.23;11.32;;;;;;;-1.64;83.26;99992.81;4956423;28;20086;-72
2024/01/28 05:44:15;;;;;;;19.65;9.40;;;;;;;-1.69;83.01;100005.53;4955715;29;20043;-70
2024/01/28 05:46:40;;;;;;;19.83;8.25;;;;;;;-1.79;83.27;100001.94;4970508;28;20027;-70
2024/01/28 05:49:08;;;;;;;18.00;10.18;;;;;;;-1.74;83.49;100012.97;4955921;28;20388;-70
2024/01/28 05:51:38;;;;;;;19.83;11.65;;;;;;;-1.63;83.54;100010.31;4955642;28;20058;-68
2024/01/28 05:54:04;;;;;;;18.08;8.98;;;;;;;-1.83;83.43;99995.22;4964209;28;20039;-70
2024/01/28 05:56:29;;;;;;;23.02;11.68;;;;;;;-1.66;83.42;100005.28;4950853;29;20078;-68
2024/01/28 05:58:55;;;;;;;24.85;10.95;;;;;;;-1.78;83.58;100006.28;4955547;29;20051;-69
2024/01/28 06:01:20;;;;;;;31.52;12.90;;;;;;;-1.79;83.62;99983.44;4955428;28;20487;-69
2024/01/28 06:03:45;;;;;;;23.75;11.55;;;;;;;-1.70;83.81;100001.19;4962865;28;20038;-69
2024/01/28 06:06:11;;;;;;;17.70;11.82;;;;;;;-1.67;83.27;100005.41;4955105;28;20450;-70
2024/01/28 06:08:36;;;;;;;18.58;9.85;;;;;;;-1.84;83.71;100006.72;4955321;28;20042;-70
2024/01/28 06:11:01;;;;;;;21.25;11.65;;;;;;;-1.74;83.37;100007.69;4955171;28;20551;-69
2024/01/28 06:13:27;;;;;;;22.73;10.50;;;;;;;-1.76;83.39;100004.34;4955312;29;20495;-70
2024/01/28 06:15:52;;;;;;;18.63;9.65;;;;;;;-1.84;83.48;100006.72;4969962;28;20027;-70
2024/01/28 06:18:19;;;;;;;22.52;9.88;;;;;;;-1.88;83.60;100005.31;4955092;28;20066;-70
2024/01/28 06:20:45;;;;;;;22.25;9.93;;;;;;;-1.90;83.66;100012.50;4954646;28;20070;-70
2024/01/28 06:23:11;;;;;;;19.95;12.35;;;;;;;-1.85;83.42;100015.63;4957315;28;20114;-70
2024/01/28 06:25:36;;;;;;;23.65;10.68;;;;;;;-1.99;83.46;100013.25;4959332;28;20110;-70
2024/01/28 06:28:03;;;;;;;21.92;11.73;;;;;;;-1.95;83.65;100003.25;4954869;28;20032;-71
2024/01/28 06:30:29;;;;;;;19.88;9.25;;;;;;;-2.10;83.41;99994.75;4955147;28;20434;-70
2024/01/28 06:32:54;;;;;;;25.45;13.93;;;;;;;-1.91;83.66;100015.28;4963773;28;20507;-71
2024/01/28 06:35:20;;;;;;;27.88;13.40;;;;;;;-2.05;83.53;100018.16;4963861;28;20035;-70
2024/01/28 06:37:45;;;;;;;26.05;13.00;;;;;;;-2.08;83.49;100011.31;4954811;28;20031;-71
2024/01/28 06:40:10;;;;;;;24.10;11.77;;;;;;;-2.05;83.54;100013.72;4966545;28;20062;-70
2024/01/28 06:42:36;;;;;;;27.10;13.20;;;;;;;-1.95;83.36;100008.53;4969243;28;20086;-70
2024/01/28 06:45:01;;;;;;;27.90;13.80;;;;;;;-1.97;83.49;100010.47;4969573;28;20479;-71
2024/01/28 06:47:27;;;;;;;24.70;15.52;;;;;;;-1.93;83.56;100007.47;4970349;28;20122;-70
2024/01/28 06:49:52;;;;;;;21.25;11.75;;;;;;;-1.99;83.41;100018.53;4956911;28;20031;-71
2024/01/28 06:52:18;;;;;;;24.42;13.65;;;;;;;-1.97;83.25;100016.59;4966862;28;20039;-71
2024/01/28 06:54:44;;;;;;;21.20;11.13;;;;;;;-2.12;83.32;100002.78;4954726;28;20070;-70
2024/01/28 06:57:09;;;;;;;23.40;12.02;;;;;;;-1.92;83.19;100016.22;4965718;28;20049;-70
2024/01/28 06:59:34;;;;;;;23.08;10.60;;;;;;;-2.02;83.37;100018.75;4954548;28;20027;-70
2024/01/28 07:02:00;;;;;;;23.35;11.70;;;;;;;-2.04;83.36;100015.41;4964790;28;20605;-68
2024/01/28 07:04:25;;;;;;;22.20;14.10;;;;;;;-1.89;83.45;100019.47;4956205;28;20033;-70
2024/01/28 07:06:51;;;;;;;22.92;10.77;;;;;;;-2.06;82.99;100006.75;4954563;28;20404;-70
2024/01/28 07:09:17;;;;;;;22.98;10.20;;;;;;;-2.00;83.10;100014.19;4954850;28;20098;-71
2024/01/28 07:11:43;;;;;;;18.98;9.20;;;;;;;-2.16;83.08;99988.16;4954475;28;20050;-69
2024/01/28 07:14:09;;;;;;;26.08;13.63;;;;;;;-1.93;83.05;99994.25;4950403;28;20040;-70
2024/01/28 07:16:35;;;;;;;22.65;14.02;;;;;;;-1.87;82.80;99991.16;4969023;28;20039;-72
2024/01/28 07:19:00;;;;;;;25.30;13.02;;;;;;;-1.97;83.08;100011.31;4952159;28;20031;-71
2024/01/28 07:21:26;;;;;;;26.38;12.35;;;;;;;-1.91;83.57;100005.53;4954143;28;20089;-70
2024/01/28 07:23:52;;;;;;;21.73;12.68;;;;;;;-1.86;83.21;100000.75;4952611;28;20034;-70
2024/01/28 07:26:17;;;;;;;23.13;10.85;;;;;;;-1.99;83.11;99986.00;4969387;28;20046;-70
2024/01/28 07:28:43;;;;;;;23.25;10.77;;;;;;;-1.92;83.15;99989.84;4954164;28;20019;-72
2024/01/28 07:31:09;;;;;;;20.98;11.20;;;;;;;-1.90;83.31;99986.13;4961353;28;20042;-72
2024/01/28 07:33:34;;;;;;;24.05;15.05;;;;;;;-1.60;83.21;100014.50;4954274;28;20139;-72
2024/01/28 07:36:00;;;;;;;30.63;12.63;;;;;;;-1.72;82.99;100011.03;4954319;28;20519;-72
2024/01/28 07:38:26;;;;;;;31.73;19.15;;;;;;;-1.52;83.11;100006.81;4953703;28;20031;-71
2024/01/28 07:40:51;;;;;;;31.48;17.77;;;;;;;-1.53;83.06;100000.69;4969860;28;20058;-72
2024/01/28 07:43:16;;;;;;;31.15;15.70;;;;;;;-1.48;83.58;99998.53;4955112;28;20488;-71
2024/01/28 07:45:42;;;;;;;28.77;12.85;;;;;;;-1.49;83.40;100004.75;4953162;28;20027;-71
2024/01/28 07:48:08;;;;;;;30.75;17.63;;;;;;;-1.35;83.32;100005.47;4953857;28;20026;-70
2024/01/28 07:50:33;;;;;;;32.78;13.75;;;;;;;-1.36;83.79;100007.25;4961651;28;20480;-72
2024/01/28 07:52:59;;;;;;;35.95;21.23;;;;;;;-1.28;83.65;99994.25;4958161;28;20510;-71
2024/01/28 07:55:24;;;;;;;30.80;15.27;;;;;;;-1.22;83.98;100008.78;4952681;29;20388;-72
2024/01/28 07:57:50;;;;;;;29.30;15.05;;;;;;;-1.23;83.98;100001.78;4959220;28;20479;-70
2024/01/28 08:00:16;;;;;;;55.25;34.90;;;;;;;-1.07;83.86;99997.75;4953792;28;20050;-72
2024/01/28 08:02:41;;;;;;;51.58;27.98;;;;;;;-1.14;83.91;100001.03;4953326;28;20031;-72
2024/01/28 08:05:07;;;;;;;54.72;37.55;;;;;;;-0.98;84.05;99996.19;4952455;28;20041;-73
2024/01/28 08:07:32;;;;;;;120.63;77.53;;;;;;;-0.90;83.36;99988.44;4952837;28;20102;-70
2024/01/28 08:09:57;;;;;;;131.23;84.18;;;;;;;-0.82;84.11;99996.59;4965149;28;20047;-71
2024/01/28 08:12:23;;;;;;;134.60;61.83;;;;;;;-0.91;84.16;99998.16;4954093;28;20116;-71
2024/01/28 08:14:48;;;;;;;110.28;71.00;;;;;;;-0.75;83.85;99998.56;4953679;29;20093;-71
2024/01/28 08:17:14;;;;;;;96.93;63.47;;;;;;;-0.68;84.01;99992.78;4968547;28;20027;-72
2024/01/28 08:19:40;;;;;;;95.35;59.05;;;;;;;-0.62;84.34;99998.38;4954650;28;20035;-73
2024/01/28 08:22:05;;;;;;;77.15;51.70;;;;;;;-0.61;84.27;99980.72;4965043;28;20118;-73
2024/01/28 08:24:31;;;;;;;46.83;31.10;;;;;;;-0.53;84.21;99994.09;4963748;28;20491;-72
2024/01/28 08:26:58;;;;;;;41.10;20.85;;;;;;;-0.60;84.73;99993.78;4950680;28;20028;-72
2024/01/28 08:29:24;;;;;;;31.13;19.73;;;;;;;-0.45;84.06;99975.78;4964102;28;20035;-72
2024/01/28 08:31:49;;;;;;;31.60;20.88;;;;;;;-0.30;84.59;99987.69;4962806;28;20505;-72
2024/01/28 08:34:15;;;;;;;36.40;23.90;;;;;;;-0.24;84.19;99993.31;4957446;28;20118;-72
2024/01/28 08:36:40;;;;;;;29.63;21.20;;;;;;;-0.25;84.93;99980.19;4955936;29;20027;-71
2024/01/28 08:39:09;;;;;;;35.38;17.13;;;;;;;-0.23;84.80;99994.97;4957819;28;20031;-73
2024/01/28 08:41:34;;;;;;;29.05;19.55;;;;;;;-0.04;85.62;99987.13;4961489;28;20058;-71
2024/01/28 08:44:01;;;;;;;36.20;20.45;;;;;;;-0.10;85.35;99966.50;4957036;28;20058;-70
2024/01/28 08:46:26;;;;;;;27.95;19.15;;;;;;;0.12;85.36;99986.63;4956901;28;20031;-71
2024/01/28 08:48:52;;;;;;;33.30;18.90;;;;;;;0.20;85.01;99997.38;4967358;28;20094;-72
2024/01/28 08:51:18;;;;;;;30.25;19.00;;;;;;;0.24;86.33;99996.13;4956824;28;20031;-71
2024/01/28 08:53:43;;;;;;;27.77;19.40;;;;;;;0.20;85.70;99985.94;4955537;29;20035;-71
2024/01/28 08:56:09;;;;;;;26.75;19.48;;;;;;;0.40;86.30;99998.25;4956646;28;20414;-70
2024/01/28 08:58:35;;;;;;;29.17;20.45;;;;;;;0.47;86.15;100000.25;4956697;28;20031;-71
2024/01/28 09:01:00;;;;;;;33.60;21.15;;;;;;;0.51;86.54;99996.34;4958355;28;20597;-71
2024/01/28 09:03:25;;;;;;;29.58;20.92;;;;;;;0.61;85.79;100001.66;4957109;29;20058;-71
2024/01/28 09:05:51;;;;;;;28.13;19.48;;;;;;;0.64;86.64;99990.78;4966534;28;20031;-71
2024/01/28 09:08:16;;;;;;;30.10;21.33;;;;;;;0.63;86.37;99981.19;4956354;28;20035;-72
2024/01/28 09:10:42;;;;;;;30.38;21.17;;;;;;;0.81;86.26;100003.38;4956220;28;20027;-71
2024/01/28 09:13:07;;;;;;;26.67;16.95;;;;;;;0.78;86.46;99998.34;4954896;29;20126;-71
2024/01/28 09:15:32;;;;;;;23.23;15.38;;;;;;;0.87;86.49;99989.56;4956350;28;20025;-71
2024/01/28 09:17:59;;;;;;;25.33;15.45;;;;;;;0.90;86.42;99983.13;4956142;28;20038;-73
2024/01/28 09:20:24;;;;;;;23.50;15.55;;;;;;;1.07;86.76;100001.03;4957060;28;20083;-72
2024/01/28 09:22:49;;;;;;;22.45;14.77;;;;;;;1.21;85.77;100001.41;4956017;29;20043;-71
2024/01/28 09:25:15;;;;;;;22.88;14.80;;;;;;;1.30;85.50;100011.19;4963056;28;20088;-71
2024/01/28 09:27:41;;;;;;;23.17;14.15;;;;;;;1.35;86.00;100000.97;4956189;28;20063;-71
2024/01/28 09:30:07;;;;;;;23.08;14.75;;;;;;;1.42;85.23;100010.03;4961463;28;20114;-70
2024/01/28 09:32:32;;;;;;;24.15;15.88;;;;;;;1.40;86.14;99989.97;4965254;28;20035;-72
2024/01/28 09:34:58;;;;;;;24.85;16.52;;;;;;;1.54;85.71;100002.75;4956081;28;20050;-70
2024/01/28 09:37:23;;;;;;;22.63;16.70;;;;;;;1.66;86.02;100009.59;4955288;28;20066;-72
2024/01/28 09:39:49;;;;;;;26.90;17.55;;;;;;;1.72;86.01;100000.22;4960882;28;20034;-71
2024/01/28 09:42:26;;;;;;;26.88;17.58;;;;;;;1.79;85.86;100003.97;4969520;28;20042;-71
2024/01/28 09:44:51;;;;;;;25.02;17.17;;;;;;;1.81;86.60;99994.03;4950037;29;20042;-72
2024/01/28 09:47:20;;;;;;;21.95;16.25;;;;;;;1.96;85.65;99992.59;4969461;28;20066;-72
2024/01/28 09:49:49;;;;;;;22.35;15.07;;;;;;;2.06;85.95;100001.34;4953746;28;20051;-71
2024/01/28 09:52:14;;;;;;;19.15;14.05;;;;;;;2.15;86.70;99995.16;4967686;28;20023;-71
2024/01/28 09:54:41;;;;;;;24.48;14.52;;;;;;;2.22;86.76;99998.91;4955238;28;20046;-70
2024/01/28 09:57:08;;;;;;;20.10;13.77;;;;;;;2.34;86.29;100003.03;4949437;29;20019;-69
2024/01/28 09:59:37;;;;;;;19.67;14.13;;;;;;;2.44;85.94;99995.88;4939678;29;20518;-70
2024/01/28 10:02:03;;;;;;;18.23;13.73;;;;;;;2.36;85.63;99968.31;4956915;28;20027;-71
2024/01/28 10:04:31;;;;;;;20.13;13.63;;;;;;;2.48;85.77;99967.13;4959506;28;20054;-70
2024/01/28 10:06:59;;;;;;;20.95;13.82;;;;;;;2.53;85.37;99963.06;4953910;28;20480;-70
2024/01/28 10:09:25;;;;;;;24.60;14.77;;;;;;;2.66;85.27;99986.63;4955772;29;20472;-70
2024/01/28 10:11:51;;;;;;;19.83;13.75;;;;;;;2.65;84.96;99985.78;4961391;28;20037;-71
2024/01/28 10:14:17;;;;;;;21.35;14.85;;;;;;;2.71;84.62;99989.66;4966172;28;20031;-71
2024/01/28 10:16:45;;;;;;;19.50;14.75;;;;;;;2.71;83.60;99990.50;4955087;28;20043;-70
2024/01/28 10:19:10;;;;;;;22.27;15.65;;;;;;;2.73;83.49;99996.50;4975901;28;20054;-71
2024/01/28 10:21:36;;;;;;;19.25;15.32;;;;;;;2.74;83.29;99990.22;4954973;28;20451;-72
2024/01/28 10:24:02;;;;;;;22.70;15.63;;;;;;;2.76;83.00;99985.56;4959890;28;20094;-71
2024/01/28 10:26:27;;;;;;;23.33;14.77;;;;;;;2.77;82.29;99965.97;4955108;28;20110;-71
2024/01/28 10:28:53;;;;;;;18.30;14.27;;;;;;;2.96;81.83;99990.75;4962953;28;20042;-70
2024/01/28 10:31:22;;;;;;;22.08;14.73;;;;;;;2.99;82.04;99987.81;4952424;29;20051;-71
2024/01/28 10:33:48;;;;;;;23.65;14.95;;;;;;;3.05;81.83;99965.88;4953734;29;20039;-70
2024/01/28 10:36:16;;;;;;;17.50;13.65;;;;;;;3.25;80.91;99972.69;4968178;28;20058;-71
2024/01/28 10:38:44;;;;;;;18.60;13.45;;;;;;;3.35;80.85;99973.47;4957521;28;20035;-71
2024/01/28 10:41:15;;;;;;;18.48;12.73;;;;;;;3.38;80.84;99973.16;4960774;28;20027;-70
2024/01/28 10:43:44;;;;;;;23.40;12.38;;;;;;;3.35;80.72;99958.31;4953651;28;20070;-71
2024/01/28 10:46:12;;;;;;;18.83;12.45;;;;;;;3.50;80.75;99966.59;4954547;28;20026;-71
2024/01/28 10:48:39;;;;;;;19.65;12.82;;;;;;;3.60;80.29;99967.31;4963788;28;20531;-71
2024/01/28 10:51:07;;;;;;;16.48;12.02;;;;;;;3.67;80.13;99956.84;4955233;28;20431;-71
2024/01/28 10:53:33;;;;;;;14.65;11.05;;;;;;;3.75;80.10;99951.59;4952841;28;20394;-70
2024/01/28 10:55:59;;;;;;;18.40;11.23;;;;;;;3.73;79.87;99943.75;4954227;28;20034;-71
2024/01/28 10:58:24;;;;;;;18.25;11.18;;;;;;;3.86;79.61;99949.47;4952436;28;20125;-70
2024/01/28 11:00:50;;;;;;;13.35;10.63;;;;;;;3.94;79.54;99948.69;4968572;28;20533;-71
2024/01/28 11:03:15;;;;;;;18.38;10.75;;;;;;;3.92;79.28;99935.50;4949238;28;20050;-70
2024/01/28 11:05:41;;;;;;;13.85;9.60;;;;;;;4.07;78.51;99922.41;4953384;28;20706;-71
2024/01/28 11:08:06;;;;;;;13.77;9.10;;;;;;;4.19;77.80;99935.31;4953226;28;20389;-70